Terminal Aerodrome Forecast
Issued by NWS Mt. Holly, NJ

Home | Current Version | Previous Version | Text Only | Print | Product List | Glossary On
Versions: 1 2 3 4 5 6 7 8 9 10 11 12 13 14 15 16 17 18 19 20 21 22 23 24 25 26 27 28 29 30 31 32 33 34 35 36 37 38 39 40 41 42 43 44 45 46 47 48 49 50
000
FTUS41 KPHI 300629 CCA
TAFABE
TAF COR
KABE 300629Z 3006/3106 18006KT 6SM BR SCT015 BKN250
     FM301000 VRB02KT 3SM BR BKN008
     FM301300 21007KT P6SM BKN025
     FM301500 21008KT P6SM SCT035
     FM301700 20012G19KT P6SM -SHRA BKN045
     FM310000 20009KT P6SM -SHRA BKN035 OVC060=

USA.gov is the U.S. government's official web portal to all federal, state and local government web resources and services.